Time,TemperatureF,DewpointF,PressureIn,WindDirection,WindDirectionDegrees,WindSpeedMPH,WindSpeedGustMPH,Humidity,HourlyPrecipIn,Conditions,Clouds,dailyrainin,SoftwareType,DateUTC
2013-02-19 00:05:00,24.8,12.0,30.19,SSE,157,3.0,5.0,58,0.00,,,0.00,weatherlink.com 1.10,2013-02-19 05:05:00,
2013-02-19 00:20:00,24.8,12.0,30.19,South,169,5.0,6.0,59,0.00,,,0.00,weatherlink.com 1.10,2013-02-19 05:20:00,
2013-02-19 00:35:00,24.9,15.0,30.18,NE,36,1.0,7.0,67,0.00,,,0.00,weatherlink.com 1.10,2013-02-19 05:35:00,
2013-02-19 00:50:00,25.3,12.0,30.18,WSW,251,2.0,4.0,57,0.00,,,0.00,weatherlink.com 1.10,2013-02-19 05:50:00,
2013-02-19 01:05:00,25.3,14.0,30.17,WSW,256,2.0,5.0,63,0.00,,,0.00,weatherlink.com 1.10,2013-02-19 06:05:00,
2013-02-19 01:20:00,25.3,14.0,30.17,SSW,208,0.0,3.0,63,0.00,,,0.00,weatherlink.com 1.10,2013-02-19 06:20:00,
2013-02-19 01:35:00,25.0,13.0,30.17,SSW,197,0.0,2.0,61,0.00,,,0.00,weatherlink.com 1.10,2013-02-19 06:35:00,
2013-02-19 01:50:00,24.8,14.0,30.16,South,176,2.0,2.0,64,0.00,,,0.00,weatherlink.com 1.10,2013-02-19 06:50:00,
2013-02-19 02:05:00,25.2,15.0,30.16,SE,131,2.0,2.0,65,0.00,,,0.00,weatherlink.com 1.10,2013-02-19 07:05:00,
2013-02-19 02:20:00,25.2,16.0,30.15,NNW,328,4.0,6.0,67,0.00,,,0.00,weatherlink.com 1.10,2013-02-19 07:20:00,
2013-02-19 02:35:00,25.5,15.0,30.15,NW,319,3.0,3.0,65,0.00,,,0.00,weatherlink.com 1.10,2013-02-19 07:35:00,
2013-02-19 02:50:00,25.7,15.0,30.14,North,360,0.0,4.0,65,0.00,,,0.00,weatherlink.com 1.10,2013-02-19 07:50:00,
2013-02-19 03:05:00,25.1,15.0,30.14,West,278,0.0,2.0,66,0.00,,,0.00,weatherlink.com 1.10,2013-02-19 08:05:00,
2013-02-19 03:20:00,25.1,16.0,30.14,NNE,13,5.0,5.0,69,0.00,,,0.00,weatherlink.com 1.10,2013-02-19 08:20:00,
2013-02-19 03:35:00,25.3,17.0,30.14,North,1,1.0,4.0,71,0.00,,,0.00,weatherlink.com 1.10,2013-02-19 08:35:00,
2013-02-19 03:50:00,25.0,17.0,30.13,NNE,19,2.0,4.0,73,0.00,,,0.00,weatherlink.com 1.10,2013-02-19 08:50:00,
2013-02-19 04:05:00,24.8,17.0,30.12,West,278,1.0,4.0,73,0.00,,,0.00,weatherlink.com 1.10,2013-02-19 09:05:00,
2013-02-19 04:20:00,24.4,17.0,30.12,West,278,0.0,1.0,74,0.00,,,0.00,weatherlink.com 1.10,2013-02-19 09:20:00,
2013-02-19 04:35:00,24.3,15.0,30.12,West,269,0.0,2.0,69,0.00,,,0.00,weatherlink.com 1.10,2013-02-19 09:35:00,
2013-02-19 04:50:00,24.6,15.0,30.11,SW,215,0.0,5.0,67,0.00,,,0.00,weatherlink.com 1.10,2013-02-19 09:50:00,
2013-02-19 05:05:00,26.2,16.0,30.10,SW,231,6.0,7.0,65,0.00,,,0.00,weatherlink.com 1.10,2013-02-19 10:05:00,
2013-02-19 05:20:00,27.1,16.0,30.10,South,184,4.0,8.0,63,0.00,,,0.00,weatherlink.com 1.10,2013-02-19 10:20:00,
2013-02-19 05:35:00,27.7,17.0,30.08,SW,232,4.0,13.0,65,0.00,,,0.00,weatherlink.com 1.10,2013-02-19 10:35:00,
2013-02-19 05:50:00,28.7,18.0,30.07,South,179,9.0,17.0,65,0.00,,,0.00,weatherlink.com 1.10,2013-02-19 10:50:00,
2013-02-19 06:05:00,28.6,18.0,30.06,West,267,8.0,12.0,66,0.00,,,0.00,weatherlink.com 1.10,2013-02-19 11:05:00,
2013-02-19 06:20:00,28.4,19.0,30.06,South,172,10.0,17.0,68,0.00,,,0.00,weatherlink.com 1.10,2013-02-19 11:20:00,
2013-02-19 06:36:00,28.3,17.0,30.05,SSE,153,12.0,22.0,64,0.00,,,0.00,weatherlink.com 1.10,2013-02-19 11:36:00,
2013-02-19 06:51:00,28.2,18.0,30.05,SSE,162,17.0,24.0,66,0.00,,,0.00,weatherlink.com 1.10,2013-02-19 11:51:00,
2013-02-19 07:06:00,28.2,19.0,30.05,WNW,285,8.0,22.0,68,0.00,,,0.00,weatherlink.com 1.10,2013-02-19 12:06:00,
2013-02-19 07:21:00,28.6,19.0,30.05,ESE,111,13.0,23.0,67,0.00,,,0.00,weatherlink.com 1.10,2013-02-19 12:21:00,
2013-02-19 07:36:00,29.4,20.0,30.05,WSW,238,8.0,18.0,68,0.00,,,0.00,weatherlink.com 1.10,2013-02-19 12:36:00,
2013-02-19 07:51:00,29.7,20.0,30.05,South,181,7.0,19.0,67,0.00,,,0.00,weatherlink.com 1.10,2013-02-19 12:51:00,
2013-02-19 08:07:00,29.5,19.0,30.06,NW,318,8.0,24.0,64,0.00,,,0.00,weatherlink.com 1.10,2013-02-19 13:07:00,
2013-02-19 08:21:00,30.1,19.0,30.05,South,191,20.0,25.0,63,0.00,,,0.00,weatherlink.com 1.10,2013-02-19 13:21:00,
2013-02-19 08:36:00,30.1,19.0,30.04,SSW,212,8.0,21.0,63,0.00,,,0.00,weatherlink.com 1.10,2013-02-19 13:36:00,
2013-02-19 08:51:00,30.4,19.0,30.04,East,85,8.0,16.0,64,0.00,,,0.00,weatherlink.com 1.10,2013-02-19 13:51:00,
2013-02-19 09:06:00,30.9,20.0,30.02,South,188,10.0,17.0,65,0.00,,,0.00,weatherlink.com 1.10,2013-02-19 14:06:00,
2013-02-19 09:21:00,31.5,19.0,30.01,South,181,7.0,13.0,61,0.00,,,0.00,weatherlink.com 1.10,2013-02-19 14:21:00,
2013-02-19 09:36:00,32.1,19.0,30.02,SSW,193,13.0,17.0,60,0.00,,,0.00,weatherlink.com 1.10,2013-02-19 14:36:00,
2013-02-19 09:51:00,32.5,19.0,30.01,South,170,8.0,15.0,59,0.00,,,0.00,weatherlink.com 1.10,2013-02-19 14:51:00,
2013-02-19 10:06:00,32.9,21.0,30.00,SSE,160,10.0,15.0,63,0.00,,,0.00,weatherlink.com 1.10,2013-02-19 15:06:00,
2013-02-19 10:21:00,33.3,21.0,29.99,SSE,149,6.0,16.0,61,0.00,,,0.00,weatherlink.com 1.10,2013-02-19 15:21:00,
2013-02-19 10:36:00,34.3,21.0,29.97,ENE,70,15.0,17.0,58,0.00,,,0.00,weatherlink.com 1.10,2013-02-19 15:36:00,
2013-02-19 10:51:00,35.0,21.0,29.97,WSW,245,9.0,19.0,58,0.00,,,0.00,weatherlink.com 1.10,2013-02-19 15:51:00,
2013-02-19 11:06:00,36.1,22.0,29.96,SSW,197,13.0,15.0,58,0.00,,,0.00,weatherlink.com 1.10,2013-02-19 16:06:00,
2013-02-19 11:21:00,36.1,24.0,29.95,NNW,342,3.0,16.0,62,0.00,,,0.00,weatherlink.com 1.10,2013-02-19 16:21:00,
2013-02-19 11:36:00,37.9,22.0,29.94,ENE,60,11.0,14.0,54,0.00,,,0.00,weatherlink.com 1.10,2013-02-19 16:36:00,
2013-02-19 11:51:00,37.8,24.0,29.92,South,188,7.0,17.0,58,0.00,,,0.00,weatherlink.com 1.10,2013-02-19 16:51:00,
2013-02-19 12:06:00,37.8,25.0,29.91,SW,236,10.0,23.0,60,0.00,,,0.00,weatherlink.com 1.10,2013-02-19 17:06:00,
2013-02-19 12:21:00,38.4,24.0,29.90,South,176,9.0,15.0,57,0.00,,,0.00,weatherlink.com 1.10,2013-02-19 17:21:00,
2013-02-19 12:37:00,38.9,25.0,29.88,South,173,13.0,19.0,57,0.00,,,0.00,weatherlink.com 1.10,2013-02-19 17:37:00,
2013-02-19 12:52:00,38.8,25.0,29.88,NE,48,4.0,17.0,59,0.00,,,0.00,weatherlink.com 1.10,2013-02-19 17:52:00,
2013-02-19 13:07:00,39.3,24.0,29.86,ESE,114,6.0,14.0,54,0.00,,,0.00,weatherlink.com 1.10,2013-02-19 18:07:00,
2013-02-19 13:22:00,39.4,24.0,29.86,SE,143,6.0,16.0,54,0.00,,,0.00,weatherlink.com 1.10,2013-02-19 18:22:00,
2013-02-19 13:37:00,39.4,23.0,29.86,SW,222,11.0,15.0,53,0.00,,,0.00,weatherlink.com 1.10,2013-02-19 18:37:00,
2013-02-19 13:52:00,38.0,27.0,29.86,SW,214,5.0,23.0,66,0.00,,,0.00,weatherlink.com 1.10,2013-02-19 18:52:00,
2013-02-19 14:07:00,36.7,30.0,29.85,WSW,248,9.0,15.0,76,0.00,,,0.00,weatherlink.com 1.10,2013-02-19 19:07:00,
2013-02-19 14:22:00,35.8,31.0,29.84,SW,232,8.0,12.0,82,0.00,,,0.00,weatherlink.com 1.10,2013-02-19 19:22:00,
2013-02-19 14:37:00,34.9,31.0,29.83,NE,35,3.0,14.0,87,0.00,,,0.00,weatherlink.com 1.10,2013-02-19 19:37:00,
2013-02-19 14:52:00,34.1,32.0,29.82,SSW,201,3.0,9.0,90,0.00,,,0.00,weatherlink.com 1.10,2013-02-19 19:52:00,
2013-02-19 15:07:00,33.9,32.0,29.81,South,186,4.0,7.0,91,0.00,,,0.00,weatherlink.com 1.10,2013-02-19 20:07:00,
2013-02-19 15:22:00,33.7,32.0,29.80,SW,222,3.0,9.0,92,0.00,,,0.00,weatherlink.com 1.10,2013-02-19 20:22:00,
2013-02-19 15:37:00,33.8,32.0,29.80,South,174,1.0,7.0,92,0.00,,,0.00,weatherlink.com 1.10,2013-02-19 20:37:00,
2013-02-19 15:52:00,33.7,32.0,29.79,SSE,156,7.0,9.0,92,0.00,,,0.00,weatherlink.com 1.10,2013-02-19 20:52:00,
2013-02-19 16:07:00,33.8,32.0,29.78,SSW,212,5.0,10.0,92,0.00,,,0.00,weatherlink.com 1.10,2013-02-19 21:07:00,
2013-02-19 16:22:00,33.8,32.0,29.78,SSW,208,9.0,11.0,92,0.00,,,0.00,weatherlink.com 1.10,2013-02-19 21:22:00,
2013-02-19 16:37:00,33.6,32.0,29.77,SSW,197,10.0,12.0,93,0.00,,,0.00,weatherlink.com 1.10,2013-02-19 21:37:00,
2013-02-19 16:52:00,33.6,32.0,29.77,South,191,8.0,9.0,94,0.00,,,0.00,weatherlink.com 1.10,2013-02-19 21:52:00,
2013-02-19 17:07:00,33.9,32.0,29.76,SW,217,8.0,10.0,94,0.00,,,0.00,weatherlink.com 1.10,2013-02-19 22:07:00,
2013-02-19 17:22:00,33.8,32.0,29.75,NNW,345,3.0,7.0,94,0.00,,,0.00,weatherlink.com 1.10,2013-02-19 22:22:00,
2013-02-19 17:37:00,33.9,32.0,29.74,South,180,6.0,8.0,94,0.00,,,0.00,weatherlink.com 1.10,2013-02-19 22:37:00,
2013-02-19 17:52:00,33.8,32.0,29.75,NW,323,2.0,8.0,94,0.00,,,0.00,weatherlink.com 1.10,2013-02-19 22:52:00,
2013-02-19 18:07:00,33.9,32.0,29.74,South,172,6.0,7.0,94,0.00,,,0.00,weatherlink.com 1.10,2013-02-19 23:07:00,
2013-02-19 18:22:00,34.0,33.0,29.73,South,173,9.0,11.0,95,0.00,,,0.00,weatherlink.com 1.10,2013-02-19 23:22:00,
2013-02-19 18:37:00,34.1,33.0,29.73,South,179,10.0,10.0,94,0.00,,,0.00,weatherlink.com 1.10,2013-02-19 23:37:00,
2013-02-19 18:52:00,34.0,33.0,29.73,SSW,195,4.0,10.0,94,0.00,,,0.00,weatherlink.com 1.10,2013-02-19 23:52:00,
2013-02-19 19:07:00,33.9,33.0,29.72,SSW,212,9.0,11.0,95,0.00,,,0.00,weatherlink.com 1.10,2013-02-20 00:07:00,
2013-02-19 19:22:00,34.0,33.0,29.71,South,170,10.0,12.0,94,0.00,,,0.00,weatherlink.com 1.10,2013-02-20 00:22:00,
2013-02-19 19:37:00,34.1,33.0,29.70,South,184,8.0,12.0,94,0.00,,,0.00,weatherlink.com 1.10,2013-02-20 00:37:00,
2013-02-19 19:52:00,34.0,33.0,29.69,South,177,11.0,16.0,94,0.00,,,0.00,weatherlink.com 1.10,2013-02-20 00:52:00,
2013-02-19 20:07:00,33.7,33.0,29.69,WNW,288,4.0,13.0,95,0.00,,,0.00,weatherlink.com 1.10,2013-02-20 01:07:00,
2013-02-19 20:23:00,33.6,32.0,29.69,SSE,165,9.0,13.0,95,0.00,,,0.00,weatherlink.com 1.10,2013-02-20 01:23:00,
2013-02-19 20:38:00,33.9,33.0,29.68,North,349,4.0,14.0,95,0.00,,,0.00,weatherlink.com 1.10,2013-02-20 01:38:00,
2013-02-19 20:53:00,33.5,32.0,29.67,SSE,166,11.0,14.0,94,0.00,,,0.00,weatherlink.com 1.10,2013-02-20 01:53:00,
2013-02-19 21:08:00,33.7,33.0,29.66,South,188,10.0,18.0,95,0.00,,,0.00,weatherlink.com 1.10,2013-02-20 02:08:00,
2013-02-19 21:23:00,33.7,33.0,29.66,ESE,103,15.0,18.0,95,0.00,,,0.00,weatherlink.com 1.10,2013-02-20 02:23:00,
2013-02-19 21:38:00,33.9,32.0,29.66,ESE,115,16.0,21.0,94,0.00,,,0.00,weatherlink.com 1.10,2013-02-20 02:38:00,
2013-02-19 21:53:00,33.9,33.0,29.67,ENE,76,4.0,16.0,95,0.00,,,0.00,weatherlink.com 1.10,2013-02-20 02:53:00,
2013-02-19 22:08:00,34.1,33.0,29.67,South,169,9.0,14.0,94,0.00,,,0.00,weatherlink.com 1.10,2013-02-20 03:08:00,
2013-02-19 22:23:00,34.6,33.0,29.66,SSE,162,4.0,10.0,94,0.00,,,0.00,weatherlink.com 1.10,2013-02-20 03:23:00,
2013-02-19 22:38:00,34.7,33.0,29.67,South,180,9.0,12.0,94,0.00,,,0.00,weatherlink.com 1.10,2013-02-20 03:38:00,
2013-02-19 22:53:00,34.4,33.0,29.66,SE,131,10.0,10.0,94,0.00,,,0.00,weatherlink.com 1.10,2013-02-20 03:53:00,
2013-02-19 23:08:00,34.1,33.0,29.66,WNW,287,2.0,11.0,94,0.00,,,0.00,weatherlink.com 1.10,2013-02-20 04:08:00,
2013-02-19 23:23:00,34.5,33.0,29.66,South,188,2.0,6.0,95,0.00,,,0.00,weatherlink.com 1.10,2013-02-20 04:23:00,
2013-02-19 23:38:00,34.5,33.0,29.67,NNW,334,4.0,7.0,94,0.00,,,0.00,weatherlink.com 1.10,2013-02-20 04:38:00,
2013-02-19 23:53:00,34.8,32.0,29.69,North,349,13.0,16.0,90,0.00,,,0.00,weatherlink.com 1.10,2013-02-20 04:53:00,